sensor_id;sensor_type;location;lat;lon;timestamp;P1;durP1;ratioP1;P2;durP2;ratioP2
59978;SDS011;45839;44.882;20.650;2023-06-10T00:01:45;5.57;;;2.60;;
59978;SDS011;45839;44.882;20.650;2023-06-10T00:04:14;5.93;;;2.60;;
59978;SDS011;45839;44.882;20.650;2023-06-10T00:06:41;5.20;;;2.63;;
59978;SDS011;45839;44.882;20.650;2023-06-10T00:09:09;4.22;;;2.35;;
59978;SDS011;45839;44.882;20.650;2023-06-10T00:11:39;4.93;;;2.80;;
59978;SDS011;45839;44.882;20.650;2023-06-10T00:14:05;6.20;;;2.70;;
59978;SDS011;45839;44.882;20.650;2023-06-10T00:16:32;5.10;;;2.58;;
59978;SDS011;45839;44.882;20.650;2023-06-10T00:19:01;6.18;;;3.03;;
59978;SDS011;45839;44.882;20.650;2023-06-10T00:21:28;5.75;;;2.90;;
59978;SDS011;45839;44.882;20.650;2023-06-10T00:23:55;6.05;;;2.85;;
59978;SDS011;45839;44.882;20.650;2023-06-10T00:26:21;5.20;;;2.88;;
59978;SDS011;45839;44.882;20.650;2023-06-10T00:28:47;5.03;;;2.72;;
59978;SDS011;45839;44.882;20.650;2023-06-10T00:31:13;6.50;;;2.78;;
59978;SDS011;45839;44.882;20.650;2023-06-10T00:33:39;4.50;;;2.47;;
59978;SDS011;45839;44.882;20.650;2023-06-10T00:36:05;5.45;;;2.70;;
59978;SDS011;45839;44.882;20.650;2023-06-10T00:38:31;5.05;;;2.80;;
59978;SDS011;45839;44.882;20.650;2023-06-10T00:40:58;5.40;;;2.80;;
59978;SDS011;45839;44.882;20.650;2023-06-10T00:43:24;5.85;;;2.80;;
59978;SDS011;45839;44.882;20.650;2023-06-10T00:45:51;4.15;;;2.40;;
59978;SDS011;45839;44.882;20.650;2023-06-10T00:48:17;4.38;;;2.60;;
59978;SDS011;45839;44.882;20.650;2023-06-10T00:50:44;4.30;;;2.53;;
59978;SDS011;45839;44.882;20.650;2023-06-10T00:53:10;5.60;;;2.65;;
59978;SDS011;45839;44.882;20.650;2023-06-10T00:55:36;5.60;;;3.03;;
59978;SDS011;45839;44.882;20.650;2023-06-10T00:58:03;4.55;;;2.60;;
59978;SDS011;45839;44.882;20.650;2023-06-10T01:00:29;4.53;;;2.33;;
59978;SDS011;45839;44.882;20.650;2023-06-10T01:02:55;4.63;;;2.63;;
59978;SDS011;45839;44.882;20.650;2023-06-10T01:05:22;5.70;;;2.67;;
59978;SDS011;45839;44.882;20.650;2023-06-10T01:08:01;4.43;;;2.60;;
59978;SDS011;45839;44.882;20.650;2023-06-10T01:10:35;5.63;;;2.72;;
59978;SDS011;45839;44.882;20.650;2023-06-10T01:13:03;5.50;;;3.20;;
59978;SDS011;45839;44.882;20.650;2023-06-10T01:15:32;5.85;;;2.63;;
59978;SDS011;45839;44.882;20.650;2023-06-10T01:17:59;5.40;;;2.60;;
59978;SDS011;45839;44.882;20.650;2023-06-10T01:20:26;4.32;;;2.38;;
59978;SDS011;45839;44.882;20.650;2023-06-10T01:22:55;5.38;;;2.42;;
59978;SDS011;45839;44.882;20.650;2023-06-10T01:25:23;5.18;;;2.60;;
59978;SDS011;45839;44.882;20.650;2023-06-10T01:28:07;5.22;;;2.42;;
59978;SDS011;45839;44.882;20.650;2023-06-10T01:30:37;5.30;;;2.38;;
59978;SDS011;45839;44.882;20.650;2023-06-10T01:33:07;5.28;;;2.40;;
59978;SDS011;45839;44.882;20.650;2023-06-10T01:35:35;4.10;;;2.13;;
59978;SDS011;45839;44.882;20.650;2023-06-10T01:38:02;5.60;;;2.22;;
59978;SDS011;45839;44.882;20.650;2023-06-10T01:40:29;4.07;;;2.13;;
59978;SDS011;45839;44.882;20.650;2023-06-10T01:42:56;5.65;;;2.50;;
59978;SDS011;45839;44.882;20.650;2023-06-10T01:45:22;4.43;;;2.42;;
59978;SDS011;45839;44.882;20.650;2023-06-10T01:47:48;4.57;;;2.47;;
59978;SDS011;45839;44.882;20.650;2023-06-10T01:50:14;6.25;;;2.55;;
59978;SDS011;45839;44.882;20.650;2023-06-10T01:52:41;4.90;;;2.33;;
59978;SDS011;45839;44.882;20.650;2023-06-10T01:55:07;5.63;;;2.38;;
59978;SDS011;45839;44.882;20.650;2023-06-10T01:57:33;5.85;;;2.60;;
59978;SDS011;45839;44.882;20.650;2023-06-10T01:59:59;4.63;;;2.38;;
59978;SDS011;45839;44.882;20.650;2023-06-10T02:02:25;4.32;;;2.28;;
59978;SDS011;45839;44.882;20.650;2023-06-10T02:04:51;3.58;;;2.10;;
59978;SDS011;45839;44.882;20.650;2023-06-10T02:07:17;5.15;;;2.40;;
59978;SDS011;45839;44.882;20.650;2023-06-10T02:09:43;5.50;;;2.55;;
59978;SDS011;45839;44.882;20.650;2023-06-10T02:12:10;4.38;;;2.30;;
59978;SDS011;45839;44.882;20.650;2023-06-10T02:14:36;5.60;;;2.50;;
59978;SDS011;45839;44.882;20.650;2023-06-10T02:17:02;4.45;;;2.15;;
59978;SDS011;45839;44.882;20.650;2023-06-10T02:19:29;4.68;;;2.25;;
59978;SDS011;45839;44.882;20.650;2023-06-10T02:21:55;4.97;;;2.30;;
59978;SDS011;45839;44.882;20.650;2023-06-10T02:24:21;3.85;;;2.08;;
59978;SDS011;45839;44.882;20.650;2023-06-10T02:26:47;4.50;;;2.10;;
59978;SDS011;45839;44.882;20.650;2023-06-10T02:29:14;4.65;;;2.17;;
59978;SDS011;45839;44.882;20.650;2023-06-10T02:31:40;4.25;;;2.30;;
59978;SDS011;45839;44.882;20.650;2023-06-10T02:34:06;4.50;;;2.10;;
59978;SDS011;45839;44.882;20.650;2023-06-10T02:36:32;4.55;;;2.25;;
59978;SDS011;45839;44.882;20.650;2023-06-10T02:39:00;5.10;;;2.55;;
59978;SDS011;45839;44.882;20.650;2023-06-10T02:41:27;5.10;;;2.58;;
59978;SDS011;45839;44.882;20.650;2023-06-10T02:43:54;5.47;;;2.38;;
59978;SDS011;45839;44.882;20.650;2023-06-10T02:46:19;6.13;;;2.95;;
59978;SDS011;45839;44.882;20.650;2023-06-10T02:48:46;5.57;;;3.00;;
59978;SDS011;45839;44.882;20.650;2023-06-10T02:51:14;5.13;;;2.90;;
59978;SDS011;45839;44.882;20.650;2023-06-10T02:53:40;5.10;;;2.53;;
59978;SDS011;45839;44.882;20.650;2023-06-10T02:56:06;4.75;;;2.60;;
59978;SDS011;45839;44.882;20.650;2023-06-10T02:58:32;6.55;;;2.47;;
59978;SDS011;45839;44.882;20.650;2023-06-10T03:00:58;4.63;;;2.40;;
59978;SDS011;45839;44.882;20.650;2023-06-10T03:03:24;5.20;;;2.30;;
59978;SDS011;45839;44.882;20.650;2023-06-10T03:05:52;4.53;;;2.28;;
59978;SDS011;45839;44.882;20.650;2023-06-10T03:08:18;3.88;;;1.95;;
59978;SDS011;45839;44.882;20.650;2023-06-10T03:10:44;5.63;;;2.50;;
59978;SDS011;45839;44.882;20.650;2023-06-10T03:13:10;6.53;;;2.85;;
59978;SDS011;45839;44.882;20.650;2023-06-10T03:15:36;4.38;;;2.00;;
59978;SDS011;45839;44.882;20.650;2023-06-10T03:18:02;5.30;;;2.60;;
59978;SDS011;45839;44.882;20.650;2023-06-10T03:20:28;4.80;;;2.20;;
59978;SDS011;45839;44.882;20.650;2023-06-10T03:22:55;4.80;;;2.10;;
59978;SDS011;45839;44.882;20.650;2023-06-10T03:25:21;4.43;;;2.13;;
59978;SDS011;45839;44.882;20.650;2023-06-10T03:27:47;5.30;;;2.45;;
59978;SDS011;45839;44.882;20.650;2023-06-10T03:30:13;4.32;;;2.22;;
59978;SDS011;45839;44.882;20.650;2023-06-10T03:32:40;4.38;;;2.60;;
59978;SDS011;45839;44.882;20.650;2023-06-10T03:35:06;8.32;;;2.60;;
59978;SDS011;45839;44.882;20.650;2023-06-10T03:37:32;5.82;;;2.42;;
59978;SDS011;45839;44.882;20.650;2023-06-10T03:39:58;5.15;;;2.53;;
59978;SDS011;45839;44.882;20.650;2023-06-10T03:42:24;5.72;;;2.30;;
59978;SDS011;45839;44.882;20.650;2023-06-10T03:44:50;7.22;;;2.67;;
59978;SDS011;45839;44.882;20.650;2023-06-10T03:47:17;4.28;;;2.20;;
59978;SDS011;45839;44.882;20.650;2023-06-10T03:49:43;4.65;;;2.22;;
59978;SDS011;45839;44.882;20.650;2023-06-10T03:52:09;4.05;;;2.30;;
59978;SDS011;45839;44.882;20.650;2023-06-10T03:54:35;3.95;;;2.00;;
59978;SDS011;45839;44.882;20.650;2023-06-10T03:57:01;4.43;;;2.33;;
59978;SDS011;45839;44.882;20.650;2023-06-10T03:59:28;6.57;;;3.05;;
59978;SDS011;45839;44.882;20.650;2023-06-10T04:01:54;4.97;;;2.25;;
59978;SDS011;45839;44.882;20.650;2023-06-10T04:04:20;4.57;;;2.40;;
59978;SDS011;45839;44.882;20.650;2023-06-10T04:06:46;5.70;;;2.60;;
59978;SDS011;45839;44.882;20.650;2023-06-10T04:09:13;6.72;;;2.45;;
59978;SDS011;45839;44.882;20.650;2023-06-10T04:11:40;6.55;;;2.60;;
59978;SDS011;45839;44.882;20.650;2023-06-10T04:14:07;4.47;;;2.25;;
59978;SDS011;45839;44.882;20.650;2023-06-10T04:16:33;6.35;;;2.55;;
59978;SDS011;45839;44.882;20.650;2023-06-10T04:19:00;6.32;;;2.55;;
59978;SDS011;45839;44.882;20.650;2023-06-10T04:21:26;6.35;;;2.80;;
59978;SDS011;45839;44.882;20.650;2023-06-10T04:23:52;5.00;;;3.10;;
59978;SDS011;45839;44.882;20.650;2023-06-10T04:26:18;6.82;;;3.25;;
59978;SDS011;45839;44.882;20.650;2023-06-10T04:28:45;5.32;;;2.80;;
59978;SDS011;45839;44.882;20.650;2023-06-10T04:31:11;5.93;;;2.90;;
59978;SDS011;45839;44.882;20.650;2023-06-10T04:33:37;6.55;;;3.35;;
59978;SDS011;45839;44.882;20.650;2023-06-10T04:36:03;5.93;;;3.00;;
59978;SDS011;45839;44.882;20.650;2023-06-10T04:38:31;4.35;;;2.67;;
59978;SDS011;45839;44.882;20.650;2023-06-10T04:40:58;6.22;;;3.28;;
59978;SDS011;45839;44.882;20.650;2023-06-10T04:43:24;6.60;;;3.08;;
59978;SDS011;45839;44.882;20.650;2023-06-10T04:45:52;5.65;;;2.70;;
59978;SDS011;45839;44.882;20.650;2023-06-10T04:48:18;7.03;;;3.35;;
59978;SDS011;45839;44.882;20.650;2023-06-10T04:50:44;6.88;;;3.47;;
59978;SDS011;45839;44.882;20.650;2023-06-10T04:53:10;6.93;;;3.40;;
59978;SDS011;45839;44.882;20.650;2023-06-10T04:55:36;5.72;;;3.05;;
59978;SDS011;45839;44.882;20.650;2023-06-10T04:58:02;8.90;;;6.90;;
59978;SDS011;45839;44.882;20.650;2023-06-10T05:00:28;12.82;;;9.00;;
59978;SDS011;45839;44.882;20.650;2023-06-10T05:02:54;22.38;;;18.35;;
59978;SDS011;45839;44.882;20.650;2023-06-10T05:05:21;13.55;;;11.65;;
59978;SDS011;45839;44.882;20.650;2023-06-10T05:07:47;19.98;;;15.10;;
59978;SDS011;45839;44.882;20.650;2023-06-10T05:10:13;20.02;;;13.82;;
59978;SDS011;45839;44.882;20.650;2023-06-10T05:12:39;15.98;;;10.98;;
59978;SDS011;45839;44.882;20.650;2023-06-10T05:15:06;32.63;;;22.60;;
59978;SDS011;45839;44.882;20.650;2023-06-10T05:17:32;22.40;;;17.60;;
59978;SDS011;45839;44.882;20.650;2023-06-10T05:20:00;12.65;;;9.30;;
59978;SDS011;45839;44.882;20.650;2023-06-10T05:22:26;18.10;;;13.88;;
59978;SDS011;45839;44.882;20.650;2023-06-10T05:24:52;8.70;;;5.35;;
59978;SDS011;45839;44.882;20.650;2023-06-10T05:27:18;7.10;;;4.60;;
59978;SDS011;45839;44.882;20.650;2023-06-10T05:29:44;9.00;;;4.20;;
59978;SDS011;45839;44.882;20.650;2023-06-10T05:32:11;7.65;;;4.40;;
59978;SDS011;45839;44.882;20.650;2023-06-10T05:34:37;7.68;;;5.68;;
59978;SDS011;45839;44.882;20.650;2023-06-10T05:37:03;9.70;;;6.47;;
59978;SDS011;45839;44.882;20.650;2023-06-10T05:39:30;17.15;;;15.02;;
59978;SDS011;45839;44.882;20.650;2023-06-10T05:41:56;6.70;;;4.72;;
59978;SDS011;45839;44.882;20.650;2023-06-10T05:44:24;6.35;;;4.25;;
59978;SDS011;45839;44.882;20.650;2023-06-10T05:46:50;18.13;;;12.68;;
59978;SDS011;45839;44.882;20.650;2023-06-10T05:49:16;6.55;;;4.15;;
59978;SDS011;45839;44.882;20.650;2023-06-10T05:51:43;5.88;;;3.70;;
59978;SDS011;45839;44.882;20.650;2023-06-10T05:54:09;8.48;;;3.58;;
59978;SDS011;45839;44.882;20.650;2023-06-10T05:56:35;5.97;;;3.67;;
59978;SDS011;45839;44.882;20.650;2023-06-10T05:59:01;7.03;;;3.13;;
59978;SDS011;45839;44.882;20.650;2023-06-10T06:01:27;7.65;;;3.08;;
59978;SDS011;45839;44.882;20.650;2023-06-10T06:03:53;5.18;;;3.10;;
59978;SDS011;45839;44.882;20.650;2023-06-10T06:06:19;6.00;;;4.13;;
59978;SDS011;45839;44.882;20.650;2023-06-10T06:08:45;7.82;;;4.30;;
59978;SDS011;45839;44.882;20.650;2023-06-10T06:11:11;9.15;;;4.75;;
59978;SDS011;45839;44.882;20.650;2023-06-10T06:13:38;34.28;;;29.33;;
59978;SDS011;45839;44.882;20.650;2023-06-10T06:16:05;9.35;;;6.38;;
59978;SDS011;45839;44.882;20.650;2023-06-10T06:18:31;5.88;;;3.35;;
59978;SDS011;45839;44.882;20.650;2023-06-10T06:20:57;6.03;;;2.92;;
59978;SDS011;45839;44.882;20.650;2023-06-10T06:23:23;6.63;;;3.78;;
59978;SDS011;45839;44.882;20.650;2023-06-10T06:25:49;17.38;;;14.10;;
59978;SDS011;45839;44.882;20.650;2023-06-10T06:28:15;25.70;;;21.60;;
59978;SDS011;45839;44.882;20.650;2023-06-10T06:30:41;7.35;;;5.32;;
59978;SDS011;45839;44.882;20.650;2023-06-10T06:33:07;6.68;;;3.42;;
59978;SDS011;45839;44.882;20.650;2023-06-10T06:35:33;6.03;;;3.70;;
59978;SDS011;45839;44.882;20.650;2023-06-10T06:37:59;4.70;;;2.58;;
59978;SDS011;45839;44.882;20.650;2023-06-10T06:40:25;5.10;;;2.42;;
59978;SDS011;45839;44.882;20.650;2023-06-10T06:42:52;5.40;;;2.63;;
59978;SDS011;45839;44.882;20.650;2023-06-10T06:45:18;5.25;;;2.10;;
59978;SDS011;45839;44.882;20.650;2023-06-10T06:47:44;4.32;;;2.22;;
59978;SDS011;45839;44.882;20.650;2023-06-10T06:50:10;3.90;;;1.88;;
59978;SDS011;45839;44.882;20.650;2023-06-10T06:52:36;3.78;;;1.83;;
59978;SDS011;45839;44.882;20.650;2023-06-10T06:55:02;5.43;;;2.38;;
59978;SDS011;45839;44.882;20.650;2023-06-10T06:57:28;4.50;;;2.10;;
59978;SDS011;45839;44.882;20.650;2023-06-10T06:59:54;4.25;;;2.22;;
59978;SDS011;45839;44.882;20.650;2023-06-10T07:02:20;37.90;;;33.88;;
59978;SDS011;45839;44.882;20.650;2023-06-10T07:04:46;6.72;;;3.50;;
59978;SDS011;45839;44.882;20.650;2023-06-10T07:07:14;31.38;;;27.23;;
59978;SDS011;45839;44.882;20.650;2023-06-10T07:09:40;17.60;;;13.73;;
59978;SDS011;45839;44.882;20.650;2023-06-10T07:12:07;12.23;;;9.18;;
59978;SDS011;45839;44.882;20.650;2023-06-10T07:14:33;25.75;;;22.98;;
59978;SDS011;45839;44.882;20.650;2023-06-10T07:16:59;16.50;;;13.98;;
59978;SDS011;45839;44.882;20.650;2023-06-10T07:19:25;16.33;;;13.80;;
59978;SDS011;45839;44.882;20.650;2023-06-10T07:21:51;5.78;;;4.05;;
59978;SDS011;45839;44.882;20.650;2023-06-10T07:24:17;8.18;;;5.30;;
59978;SDS011;45839;44.882;20.650;2023-06-10T07:26:45;5.65;;;3.45;;
59978;SDS011;45839;44.882;20.650;2023-06-10T07:29:12;22.88;;;20.52;;
59978;SDS011;45839;44.882;20.650;2023-06-10T07:31:38;9.32;;;8.05;;
59978;SDS011;45839;44.882;20.650;2023-06-10T07:34:04;6.20;;;3.45;;
59978;SDS011;45839;44.882;20.650;2023-06-10T07:36:30;7.57;;;4.30;;
59978;SDS011;45839;44.882;20.650;2023-06-10T07:38:56;9.13;;;5.38;;
59978;SDS011;45839;44.882;20.650;2023-06-10T07:41:22;7.22;;;4.00;;
59978;SDS011;45839;44.882;20.650;2023-06-10T07:43:50;15.00;;;12.70;;
59978;SDS011;45839;44.882;20.650;2023-06-10T07:46:19;19.33;;;17.30;;
59978;SDS011;45839;44.882;20.650;2023-06-10T07:48:46;40.00;;;35.90;;
59978;SDS011;45839;44.882;20.650;2023-06-10T07:51:12;23.17;;;20.48;;
59978;SDS011;45839;44.882;20.650;2023-06-10T07:53:38;8.57;;;4.70;;
59978;SDS011;45839;44.882;20.650;2023-06-10T07:56:04;8.85;;;7.25;;
59978;SDS011;45839;44.882;20.650;2023-06-10T07:58:30;10.80;;;8.23;;
59978;SDS011;45839;44.882;20.650;2023-06-10T08:00:56;15.77;;;10.15;;
59978;SDS011;45839;44.882;20.650;2023-06-10T08:03:22;6.65;;;4.30;;
59978;SDS011;45839;44.882;20.650;2023-06-10T08:05:48;12.95;;;9.02;;
59978;SDS011;45839;44.882;20.650;2023-06-10T08:08:14;8.38;;;5.20;;
59978;SDS011;45839;44.882;20.650;2023-06-10T08:10:40;4.90;;;2.97;;
59978;SDS011;45839;44.882;20.650;2023-06-10T08:13:07;5.93;;;3.83;;
59978;SDS011;45839;44.882;20.650;2023-06-10T08:15:33;6.25;;;2.60;;
59978;SDS011;45839;44.882;20.650;2023-06-10T08:17:59;6.70;;;4.57;;
59978;SDS011;45839;44.882;20.650;2023-06-10T08:20:25;12.20;;;9.50;;
59978;SDS011;45839;44.882;20.650;2023-06-10T08:22:51;6.22;;;3.20;;
59978;SDS011;45839;44.882;20.650;2023-06-10T08:25:17;4.53;;;2.63;;
59978;SDS011;45839;44.882;20.650;2023-06-10T08:27:44;5.38;;;3.33;;
59978;SDS011;45839;44.882;20.650;2023-06-10T08:30:10;9.05;;;5.30;;
59978;SDS011;45839;44.882;20.650;2023-06-10T08:32:36;26.42;;;21.55;;
59978;SDS011;45839;44.882;20.650;2023-06-10T08:35:02;5.25;;;3.22;;
59978;SDS011;45839;44.882;20.650;2023-06-10T08:37:29;4.63;;;2.33;;
59978;SDS011;45839;44.882;20.650;2023-06-10T08:39:55;6.18;;;2.53;;
59978;SDS011;45839;44.882;20.650;2023-06-10T08:42:35;3.60;;;2.08;;
59978;SDS011;45839;44.882;20.650;2023-06-10T08:45:03;14.68;;;11.23;;
59978;SDS011;45839;44.882;20.650;2023-06-10T08:47:30;17.35;;;13.07;;
59978;SDS011;45839;44.882;20.650;2023-06-10T08:50:02;9.10;;;5.30;;
59978;SDS011;45839;44.882;20.650;2023-06-10T08:52:29;14.70;;;11.65;;
59978;SDS011;45839;44.882;20.650;2023-06-10T08:54:57;6.15;;;3.60;;
59978;SDS011;45839;44.882;20.650;2023-06-10T08:57:23;8.70;;;5.10;;
59978;SDS011;45839;44.882;20.650;2023-06-10T08:59:49;5.15;;;2.67;;
59978;SDS011;45839;44.882;20.650;2023-06-10T09:02:15;4.95;;;2.88;;
59978;SDS011;45839;44.882;20.650;2023-06-10T09:04:44;6.13;;;4.00;;
59978;SDS011;45839;44.882;20.650;2023-06-10T09:07:11;4.85;;;2.80;;
59978;SDS011;45839;44.882;20.650;2023-06-10T09:09:39;5.28;;;2.35;;
59978;SDS011;45839;44.882;20.650;2023-06-10T09:12:05;6.88;;;2.70;;
59978;SDS011;45839;44.882;20.650;2023-06-10T09:14:32;5.93;;;2.42;;
59978;SDS011;45839;44.882;20.650;2023-06-10T09:16:58;4.85;;;2.40;;
59978;SDS011;45839;44.882;20.650;2023-06-10T09:19:26;4.43;;;2.15;;
59978;SDS011;45839;44.882;20.650;2023-06-10T09:21:53;3.85;;;2.20;;
59978;SDS011;45839;44.882;20.650;2023-06-10T09:24:22;4.05;;;2.30;;
59978;SDS011;45839;44.882;20.650;2023-06-10T09:26:48;3.85;;;2.03;;
59978;SDS011;45839;44.882;20.650;2023-06-10T09:29:16;4.60;;;2.35;;
59978;SDS011;45839;44.882;20.650;2023-06-10T09:31:42;5.18;;;2.30;;
59978;SDS011;45839;44.882;20.650;2023-06-10T09:36:35;4.47;;;2.05;;
59978;SDS011;45839;44.882;20.650;2023-06-10T09:39:01;4.00;;;2.00;;
59978;SDS011;45839;44.882;20.650;2023-06-10T09:41:35;5.00;;;2.10;;
59978;SDS011;45839;44.882;20.650;2023-06-10T09:44:01;4.45;;;1.75;;
59978;SDS011;45839;44.882;20.650;2023-06-10T09:46:31;3.47;;;1.83;;
59978;SDS011;45839;44.882;20.650;2023-06-10T09:48:58;3.80;;;1.80;;
59978;SDS011;45839;44.882;20.650;2023-06-10T09:51:24;4.60;;;2.20;;
59978;SDS011;45839;44.882;20.650;2023-06-10T09:53:53;3.72;;;1.70;;
59978;SDS011;45839;44.882;20.650;2023-06-10T09:56:20;4.40;;;1.98;;
59978;SDS011;45839;44.882;20.650;2023-06-10T09:58:49;4.15;;;1.80;;
59978;SDS011;45839;44.882;20.650;2023-06-10T10:01:18;3.83;;;1.90;;
59978;SDS011;45839;44.882;20.650;2023-06-10T10:03:51;6.05;;;2.08;;
59978;SDS011;45839;44.882;20.650;2023-06-10T10:06:18;3.80;;;1.65;;
59978;SDS011;45839;44.882;20.650;2023-06-10T10:08:45;2.55;;;1.55;;
59978;SDS011;45839;44.882;20.650;2023-06-10T10:11:11;3.05;;;1.60;;
59978;SDS011;45839;44.882;20.650;2023-06-10T10:13:37;3.63;;;1.60;;
59978;SDS011;45839;44.882;20.650;2023-06-10T10:16:04;3.53;;;1.40;;
59978;SDS011;45839;44.882;20.650;2023-06-10T10:18:32;4.82;;;1.88;;
59978;SDS011;45839;44.882;20.650;2023-06-10T10:21:00;2.70;;;1.50;;
59978;SDS011;45839;44.882;20.650;2023-06-10T10:23:32;7.95;;;4.45;;
59978;SDS011;45839;44.882;20.650;2023-06-10T10:28:26;9.93;;;6.72;;
59978;SDS011;45839;44.882;20.650;2023-06-10T10:30:56;4.95;;;2.55;;
59978;SDS011;45839;44.882;20.650;2023-06-10T10:33:31;5.80;;;3.30;;
59978;SDS011;45839;44.882;20.650;2023-06-10T10:35:58;5.32;;;2.72;;
59978;SDS011;45839;44.882;20.650;2023-06-10T10:38:25;5.00;;;2.75;;
59978;SDS011;45839;44.882;20.650;2023-06-10T10:40:51;6.60;;;3.80;;
59978;SDS011;45839;44.882;20.650;2023-06-10T10:43:17;3.88;;;1.80;;
59978;SDS011;45839;44.882;20.650;2023-06-10T10:45:45;5.78;;;2.40;;
59978;SDS011;45839;44.882;20.650;2023-06-10T10:48:11;3.95;;;1.80;;
59978;SDS011;45839;44.882;20.650;2023-06-10T10:50:38;7.88;;;4.10;;
59978;SDS011;45839;44.882;20.650;2023-06-10T10:53:05;4.55;;;2.28;;
59978;SDS011;45839;44.882;20.650;2023-06-10T10:55:32;4.20;;;2.30;;
59978;SDS011;45839;44.882;20.650;2023-06-10T11:00:31;9.00;;;5.25;;
59978;SDS011;45839;44.882;20.650;2023-06-10T11:02:58;5.63;;;3.08;;
59978;SDS011;45839;44.882;20.650;2023-06-10T11:05:57;4.57;;;2.47;;
59978;SDS011;45839;44.882;20.650;2023-06-10T11:10:54;4.28;;;2.20;;
59978;SDS011;45839;44.882;20.650;2023-06-10T11:13:21;6.43;;;3.03;;
59978;SDS011;45839;44.882;20.650;2023-06-10T11:15:48;3.90;;;2.08;;
59978;SDS011;45839;44.882;20.650;2023-06-10T11:28:39;4.57;;;2.60;;
59978;SDS011;45839;44.882;20.650;2023-06-10T11:31:05;5.32;;;3.35;;
59978;SDS011;45839;44.882;20.650;2023-06-10T11:33:31;4.32;;;2.35;;
59978;SDS011;45839;44.882;20.650;2023-06-10T11:35:57;4.43;;;1.80;;
59978;SDS011;45839;44.882;20.650;2023-06-10T11:38:24;3.63;;;1.77;;
59978;SDS011;45839;44.882;20.650;2023-06-10T11:40:50;3.45;;;1.90;;
59978;SDS011;45839;44.882;20.650;2023-06-10T11:43:17;3.90;;;1.80;;
59978;SDS011;45839;44.882;20.650;2023-06-10T11:45:43;4.80;;;2.40;;
59978;SDS011;45839;44.882;20.650;2023-06-10T11:48:10;4.63;;;2.45;;
59978;SDS011;45839;44.882;20.650;2023-06-10T11:50:36;4.10;;;2.17;;
59978;SDS011;45839;44.882;20.650;2023-06-10T11:53:02;3.80;;;1.95;;
59978;SDS011;45839;44.882;20.650;2023-06-10T11:55:48;5.90;;;2.58;;
59978;SDS011;45839;44.882;20.650;2023-06-10T11:58:17;2.90;;;1.60;;
59978;SDS011;45839;44.882;20.650;2023-06-10T12:00:47;2.90;;;1.70;;
59978;SDS011;45839;44.882;20.650;2023-06-10T12:03:13;2.35;;;1.23;;
59978;SDS011;45839;44.882;20.650;2023-06-10T12:05:39;3.35;;;1.60;;
59978;SDS011;45839;44.882;20.650;2023-06-10T12:08:12;2.78;;;1.55;;
59978;SDS011;45839;44.882;20.650;2023-06-10T12:10:39;3.85;;;1.70;;
59978;SDS011;45839;44.882;20.650;2023-06-10T12:13:05;3.38;;;1.80;;
59978;SDS011;45839;44.882;20.650;2023-06-10T12:15:32;3.88;;;1.95;;
59978;SDS011;45839;44.882;20.650;2023-06-10T12:17:58;4.85;;;1.83;;
59978;SDS011;45839;44.882;20.650;2023-06-10T12:20:26;2.38;;;1.35;;
59978;SDS011;45839;44.882;20.650;2023-06-10T12:22:53;2.92;;;1.70;;
59978;SDS011;45839;44.882;20.650;2023-06-10T12:25:23;3.58;;;1.70;;
59978;SDS011;45839;44.882;20.650;2023-06-10T12:27:51;4.70;;;2.10;;
59978;SDS011;45839;44.882;20.650;2023-06-10T12:30:21;4.05;;;2.08;;
59978;SDS011;45839;44.882;20.650;2023-06-10T12:32:47;4.03;;;2.40;;
59978;SDS011;45839;44.882;20.650;2023-06-10T12:35:17;2.65;;;1.60;;
59978;SDS011;45839;44.882;20.650;2023-06-10T12:37:54;2.95;;;1.73;;
59978;SDS011;45839;44.882;20.650;2023-06-10T12:40:25;3.55;;;1.60;;
59978;SDS011;45839;44.882;20.650;2023-06-10T12:42:53;4.80;;;1.70;;
59978;SDS011;45839;44.882;20.650;2023-06-10T12:48:16;3.67;;;1.90;;
59978;SDS011;45839;44.882;20.650;2023-06-10T12:50:43;2.47;;;1.52;;
59978;SDS011;45839;44.882;20.650;2023-06-10T12:53:09;4.95;;;2.65;;
59978;SDS011;45839;44.882;20.650;2023-06-10T12:55:38;4.10;;;2.00;;
59978;SDS011;45839;44.882;20.650;2023-06-10T12:58:05;3.53;;;1.95;;
59978;SDS011;45839;44.882;20.650;2023-06-10T13:00:31;4.93;;;2.95;;
59978;SDS011;45839;44.882;20.650;2023-06-10T13:03:00;4.65;;;2.60;;
59978;SDS011;45839;44.882;20.650;2023-06-10T13:05:27;3.47;;;1.95;;
59978;SDS011;45839;44.882;20.650;2023-06-10T13:07:53;3.00;;;1.55;;
59978;SDS011;45839;44.882;20.650;2023-06-10T13:10:20;3.75;;;2.17;;
59978;SDS011;45839;44.882;20.650;2023-06-10T13:12:46;5.40;;;3.30;;
59978;SDS011;45839;44.882;20.650;2023-06-10T13:15:13;5.50;;;2.72;;
59978;SDS011;45839;44.882;20.650;2023-06-10T13:17:39;4.65;;;2.50;;
59978;SDS011;45839;44.882;20.650;2023-06-10T13:20:06;4.68;;;2.25;;
59978;SDS011;45839;44.882;20.650;2023-06-10T13:22:33;5.70;;;2.40;;
59978;SDS011;45839;44.882;20.650;2023-06-10T13:25:04;6.05;;;2.63;;
59978;SDS011;45839;44.882;20.650;2023-06-10T13:27:32;5.63;;;3.45;;
59978;SDS011;45839;44.882;20.650;2023-06-10T13:29:58;5.55;;;3.00;;
59978;SDS011;45839;44.882;20.650;2023-06-10T13:32:24;5.18;;;2.50;;
59978;SDS011;45839;44.882;20.650;2023-06-10T13:34:50;4.88;;;2.92;;
59978;SDS011;45839;44.882;20.650;2023-06-10T13:37:18;4.28;;;1.80;;
59978;SDS011;45839;44.882;20.650;2023-06-10T13:39:45;4.07;;;2.22;;
59978;SDS011;45839;44.882;20.650;2023-06-10T13:42:13;5.93;;;2.83;;
59978;SDS011;45839;44.882;20.650;2023-06-10T13:44:40;2.42;;;1.50;;
59978;SDS011;45839;44.882;20.650;2023-06-10T13:47:06;4.45;;;1.90;;
59978;SDS011;45839;44.882;20.650;2023-06-10T13:49:32;5.35;;;1.52;;
59978;SDS011;45839;44.882;20.650;2023-06-10T13:51:58;60.75;;;54.30;;
59978;SDS011;45839;44.882;20.650;2023-06-10T13:54:24;84.45;;;72.03;;
59978;SDS011;45839;44.882;20.650;2023-06-10T13:56:50;136.15;;;121.18;;
59978;SDS011;45839;44.882;20.650;2023-06-10T13:59:16;63.85;;;57.08;;
59978;SDS011;45839;44.882;20.650;2023-06-10T14:01:44;129.02;;;111.07;;
59978;SDS011;45839;44.882;20.650;2023-06-10T14:04:10;156.20;;;141.40;;
59978;SDS011;45839;44.882;20.650;2023-06-10T14:06:36;100.95;;;90.82;;
59978;SDS011;45839;44.882;20.650;2023-06-10T14:09:02;146.98;;;132.32;;
59978;SDS011;45839;44.882;20.650;2023-06-10T14:11:28;20.63;;;18.63;;
59978;SDS011;45839;44.882;20.650;2023-06-10T14:13:54;6.03;;;4.28;;
59978;SDS011;45839;44.882;20.650;2023-06-10T14:16:24;6.07;;;3.65;;
59978;SDS011;45839;44.882;20.650;2023-06-10T14:18:50;4.13;;;1.80;;
59978;SDS011;45839;44.882;20.650;2023-06-10T14:21:16;6.53;;;3.35;;
59978;SDS011;45839;44.882;20.650;2023-06-10T14:23:42;3.28;;;1.70;;
59978;SDS011;45839;44.882;20.650;2023-06-10T14:26:09;4.28;;;2.47;;
59978;SDS011;45839;44.882;20.650;2023-06-10T14:28:35;5.43;;;2.92;;
59978;SDS011;45839;44.882;20.650;2023-06-10T14:31:01;5.25;;;3.00;;
59978;SDS011;45839;44.882;20.650;2023-06-10T14:33:27;6.70;;;3.40;;
59978;SDS011;45839;44.882;20.650;2023-06-10T14:35:53;4.82;;;2.75;;
59978;SDS011;45839;44.882;20.650;2023-06-10T14:38:19;5.50;;;3.75;;
59978;SDS011;45839;44.882;20.650;2023-06-10T14:40:45;4.20;;;2.30;;
59978;SDS011;45839;44.882;20.650;2023-06-10T14:43:11;3.03;;;1.95;;
59978;SDS011;45839;44.882;20.650;2023-06-10T14:45:38;3.30;;;1.80;;
59978;SDS011;45839;44.882;20.650;2023-06-10T14:48:05;3.75;;;2.03;;
59978;SDS011;45839;44.882;20.650;2023-06-10T14:50:31;6.93;;;2.30;;
59978;SDS011;45839;44.882;20.650;2023-06-10T14:52:58;4.22;;;2.30;;